Dora, NM (88115)

12:57 AM MDT on August 26, 2016 (GMT -0600)
APRSWXNET | | Change Station

Elev 4009 ft 34.17 °N, 103.35 °W | Updated 39 minutes ago

Mostly Cloudy
Mostly Cloudy
63 °F
Feels Like 63 °F
N
1
Wind Variable Wind from WNW
Gusts 5.0 mph

Today
High -- | Low -- °F
--% Chance of Precip.
Yesterday
High -- | Low -- °F
Precip. -- in
Pressure 30.19 in
Visibility 10.0 miles
Clouds Few 1300 ft
Scattered Clouds 8000 ft
Mostly Cloudy 10000 ft
Dew Point 60 °F
Humidity 90%
Rainfall in
Snow Depth Not available.
6:23 AM 7:26 PM
Last Quarter, 37% visible
SPECI KCVS 260600Z AUTO 22016G27KT 150V280 10SM FEW013 SCT080 BKN100 17/16 A3019 RMK AO2 WSHFT 0559 CIG 075 RWY04 $
Pressure 30.19 in
Visibility 10.0 miles
Clouds Few 1300 ft
Scattered Clouds 8000 ft
Mostly Cloudy 10000 ft
Dew Point 60 °F
Humidity 90%
Rainfall in
Snow Depth Not available.
6:23 AM 7:26 PM
Last Quarter, 37% visible
SPECI KCVS 260600Z AUTO 22016G27KT 150V280 10SM FEW013 SCT080 BKN100 17/16 A3019 RMK AO2 WSHFT 0559 CIG 075 RWY04 $

10-Day Weather Forecast

Almanac

Astronomy

Aug. 26, 2016 Rise Set
Actual Time
Civil Twilight
Nautical Twilight
Astronomical Twilight
Moon
Length of Visible Light
Length of Day
Tomorrow will be .
, % of the Moon is Illuminated

Today's Extremes

State Highs State Lows

Community

WunderPhotos

Upload Photos

1,935,063 photos uploaded!

WunderBlog® & News

Nearby

Air Quality

  Air Quality AQ Index Pollutant
Not available.

Snow Depth

Station Depth Elevation

Earthquake Activity

City Distance Mag. Time & Date
Minimum magnitude displayed is 2.5.

Coastal Water Temperatures

Place Temperature

Stations

Nearby Weather Stations

Station Location Temp. Windchill Dew Point Humidity Wind Precip. Elev Updated Type
                   

Watches & Warnings

There are currently no watches in effect.